sensor_id;sensor_type;location;lat;lon;timestamp;P1;durP1;ratioP1;P2;durP2;ratioP2
462;SDS011;218;51.902;9.542;2022-10-22T00:02:20;8.60;;;7.80;;
462;SDS011;218;51.902;9.542;2022-10-22T00:04:48;10.90;;;9.57;;
462;SDS011;218;51.902;9.542;2022-10-22T00:07:15;9.80;;;9.00;;
462;SDS011;218;51.902;9.542;2022-10-22T00:09:43;14.90;;;10.77;;
462;SDS011;218;51.902;9.542;2022-10-22T00:12:10;12.50;;;11.20;;
462;SDS011;218;51.902;9.542;2022-10-22T00:14:39;16.33;;;11.87;;
462;SDS011;218;51.902;9.542;2022-10-22T00:17:06;11.17;;;9.97;;
462;SDS011;218;51.902;9.542;2022-10-22T00:19:33;13.20;;;11.80;;
462;SDS011;218;51.902;9.542;2022-10-22T00:22:00;14.13;;;11.10;;
462;SDS011;218;51.902;9.542;2022-10-22T00:24:29;13.03;;;11.93;;
462;SDS011;218;51.902;9.542;2022-10-22T00:26:57;13.93;;;11.90;;
462;SDS011;218;51.902;9.542;2022-10-22T00:29:24;12.47;;;11.27;;
462;SDS011;218;51.902;9.542;2022-10-22T00:31:53;13.60;;;11.97;;
462;SDS011;218;51.902;9.542;2022-10-22T00:34:21;12.87;;;11.77;;
462;SDS011;218;51.902;9.542;2022-10-22T00:36:48;12.17;;;10.90;;
462;SDS011;218;51.902;9.542;2022-10-22T00:39:17;13.27;;;11.87;;
462;SDS011;218;51.902;9.542;2022-10-22T00:41:46;12.07;;;10.83;;
462;SDS011;218;51.902;9.542;2022-10-22T00:47:00;13.60;;;11.53;;
462;SDS011;218;51.902;9.542;2022-10-22T00:49:27;12.40;;;11.23;;
462;SDS011;218;51.902;9.542;2022-10-22T00:51:54;15.73;;;12.53;;
462;SDS011;218;51.902;9.542;2022-10-22T00:54:22;12.23;;;11.13;;
462;SDS011;218;51.902;9.542;2022-10-22T00:56:49;12.40;;;10.97;;
462;SDS011;218;51.902;9.542;2022-10-22T00:59:17;12.10;;;10.90;;
462;SDS011;218;51.902;9.542;2022-10-22T01:01:44;11.40;;;10.30;;
462;SDS011;218;51.902;9.542;2022-10-22T01:04:12;11.80;;;10.57;;
462;SDS011;218;51.902;9.542;2022-10-22T01:06:39;11.97;;;10.80;;
462;SDS011;218;51.902;9.542;2022-10-22T01:09:10;13.27;;;12.07;;
462;SDS011;218;51.902;9.542;2022-10-22T01:11:47;15.13;;;13.53;;
462;SDS011;218;51.902;9.542;2022-10-22T01:14:16;14.93;;;13.43;;
462;SDS011;218;51.902;9.542;2022-10-22T01:16:52;16.77;;;14.97;;
462;SDS011;218;51.902;9.542;2022-10-22T01:19:29;14.90;;;13.33;;
462;SDS011;218;51.902;9.542;2022-10-22T01:21:59;16.00;;;12.70;;
462;SDS011;218;51.902;9.542;2022-10-22T01:24:36;16.10;;;14.53;;
462;SDS011;218;51.902;9.542;2022-10-22T01:27:09;20.87;;;15.60;;
462;SDS011;218;51.902;9.542;2022-10-22T01:29:47;19.80;;;17.27;;
462;SDS011;218;51.902;9.542;2022-10-22T01:32:17;18.27;;;16.27;;
462;SDS011;218;51.902;9.542;2022-10-22T01:34:48;20.00;;;16.70;;
462;SDS011;218;51.902;9.542;2022-10-22T01:37:19;18.27;;;16.47;;
462;SDS011;218;51.902;9.542;2022-10-22T01:39:49;17.90;;;15.97;;
462;SDS011;218;51.902;9.542;2022-10-22T01:42:18;16.70;;;15.00;;
462;SDS011;218;51.902;9.542;2022-10-22T01:44:46;18.30;;;16.33;;
462;SDS011;218;51.902;9.542;2022-10-22T01:47:15;15.80;;;14.17;;
462;SDS011;218;51.902;9.542;2022-10-22T01:50:00;18.63;;;16.90;;
462;SDS011;218;51.902;9.542;2022-10-22T01:52:43;20.10;;;16.30;;
462;SDS011;218;51.902;9.542;2022-10-22T01:55:18;18.03;;;16.13;;
462;SDS011;218;51.902;9.542;2022-10-22T01:57:52;15.87;;;14.20;;
462;SDS011;218;51.902;9.542;2022-10-22T02:00:28;16.27;;;14.67;;
462;SDS011;218;51.902;9.542;2022-10-22T02:02:57;14.37;;;13.00;;
462;SDS011;218;51.902;9.542;2022-10-22T02:05:27;16.43;;;14.73;;
462;SDS011;218;51.902;9.542;2022-10-22T02:08:00;15.57;;;14.17;;
462;SDS011;218;51.902;9.542;2022-10-22T02:10:30;14.47;;;12.97;;
462;SDS011;218;51.902;9.542;2022-10-22T02:12:58;16.27;;;14.77;;
462;SDS011;218;51.902;9.542;2022-10-22T02:15:28;13.47;;;11.83;;
462;SDS011;218;51.902;9.542;2022-10-22T02:17:59;16.87;;;15.17;;
462;SDS011;218;51.902;9.542;2022-10-22T02:20:28;15.93;;;14.33;;
462;SDS011;218;51.902;9.542;2022-10-22T02:22:57;14.27;;;12.80;;
462;SDS011;218;51.902;9.542;2022-10-22T02:25:26;13.50;;;12.30;;
462;SDS011;218;51.902;9.542;2022-10-22T02:27:58;14.40;;;12.90;;
462;SDS011;218;51.902;9.542;2022-10-22T02:30:29;15.07;;;13.70;;
462;SDS011;218;51.902;9.542;2022-10-22T02:32:59;12.70;;;11.50;;
462;SDS011;218;51.902;9.542;2022-10-22T02:35:28;13.23;;;11.83;;
462;SDS011;218;51.902;9.542;2022-10-22T02:37:56;12.83;;;11.57;;
462;SDS011;218;51.902;9.542;2022-10-22T02:40:24;12.00;;;10.90;;
462;SDS011;218;51.902;9.542;2022-10-22T02:42:52;11.50;;;10.30;;
462;SDS011;218;51.902;9.542;2022-10-22T02:45:19;11.83;;;10.73;;
462;SDS011;218;51.902;9.542;2022-10-22T02:47:47;14.17;;;12.67;;
462;SDS011;218;51.902;9.542;2022-10-22T02:50:15;11.07;;;10.10;;
462;SDS011;218;51.902;9.542;2022-10-22T02:52:42;11.70;;;10.60;;
462;SDS011;218;51.902;9.542;2022-10-22T02:55:09;10.93;;;9.90;;
462;SDS011;218;51.902;9.542;2022-10-22T02:57:36;10.10;;;9.10;;
462;SDS011;218;51.902;9.542;2022-10-22T03:00:03;11.00;;;9.60;;
462;SDS011;218;51.902;9.542;2022-10-22T03:02:31;9.77;;;8.73;;
462;SDS011;218;51.902;9.542;2022-10-22T03:04:59;11.10;;;9.90;;
462;SDS011;218;51.902;9.542;2022-10-22T03:07:26;10.83;;;9.80;;
462;SDS011;218;51.902;9.542;2022-10-22T03:09:53;11.27;;;9.07;;
462;SDS011;218;51.902;9.542;2022-10-22T03:12:20;9.70;;;8.90;;
462;SDS011;218;51.902;9.542;2022-10-22T03:14:47;11.00;;;10.00;;
462;SDS011;218;51.902;9.542;2022-10-22T03:17:14;9.27;;;8.30;;
462;SDS011;218;51.902;9.542;2022-10-22T03:19:41;11.63;;;10.33;;
462;SDS011;218;51.902;9.542;2022-10-22T03:22:10;12.60;;;11.47;;
462;SDS011;218;51.902;9.542;2022-10-22T03:24:40;11.87;;;10.50;;
462;SDS011;218;51.902;9.542;2022-10-22T03:27:09;10.93;;;9.60;;
462;SDS011;218;51.902;9.542;2022-10-22T03:29:40;11.23;;;9.73;;
462;SDS011;218;51.902;9.542;2022-10-22T03:32:08;12.13;;;9.60;;
462;SDS011;218;51.902;9.542;2022-10-22T03:34:35;11.30;;;10.20;;
462;SDS011;218;51.902;9.542;2022-10-22T03:37:02;12.60;;;11.30;;
462;SDS011;218;51.902;9.542;2022-10-22T03:42:03;12.27;;;10.97;;
462;SDS011;218;51.902;9.542;2022-10-22T03:44:31;12.93;;;11.77;;
462;SDS011;218;51.902;9.542;2022-10-22T03:46:58;15.60;;;11.50;;
462;SDS011;218;51.902;9.542;2022-10-22T03:49:26;12.50;;;11.30;;
462;SDS011;218;51.902;9.542;2022-10-22T03:51:53;12.83;;;9.70;;
462;SDS011;218;51.902;9.542;2022-10-22T03:54:20;11.77;;;10.60;;
462;SDS011;218;51.902;9.542;2022-10-22T03:56:48;12.53;;;11.33;;
462;SDS011;218;51.902;9.542;2022-10-22T03:59:17;10.40;;;9.23;;
462;SDS011;218;51.902;9.542;2022-10-22T04:01:44;11.20;;;10.10;;
462;SDS011;218;51.902;9.542;2022-10-22T04:04:11;11.67;;;10.57;;
462;SDS011;218;51.902;9.542;2022-10-22T04:06:38;12.30;;;11.10;;
462;SDS011;218;51.902;9.542;2022-10-22T04:09:05;11.57;;;10.47;;
462;SDS011;218;51.902;9.542;2022-10-22T04:11:33;12.33;;;11.17;;
462;SDS011;218;51.902;9.542;2022-10-22T04:14:00;11.80;;;10.60;;
462;SDS011;218;51.902;9.542;2022-10-22T04:16:28;11.90;;;10.77;;
462;SDS011;218;51.902;9.542;2022-10-22T04:18:56;12.60;;;11.30;;
462;SDS011;218;51.902;9.542;2022-10-22T04:21:24;11.57;;;10.33;;
462;SDS011;218;51.902;9.542;2022-10-22T04:23:51;12.47;;;10.90;;
462;SDS011;218;51.902;9.542;2022-10-22T04:26:19;12.57;;;11.27;;
462;SDS011;218;51.902;9.542;2022-10-22T04:28:46;11.20;;;9.33;;
462;SDS011;218;51.902;9.542;2022-10-22T04:31:15;12.70;;;10.20;;
462;SDS011;218;51.902;9.542;2022-10-22T04:33:45;11.80;;;10.60;;
462;SDS011;218;51.902;9.542;2022-10-22T04:36:13;11.13;;;10.07;;
462;SDS011;218;51.902;9.542;2022-10-22T04:38:42;11.57;;;10.40;;
462;SDS011;218;51.902;9.542;2022-10-22T04:41:10;12.00;;;10.90;;
462;SDS011;218;51.902;9.542;2022-10-22T04:43:38;10.60;;;9.60;;
462;SDS011;218;51.902;9.542;2022-10-22T04:46:06;13.37;;;11.60;;
462;SDS011;218;51.902;9.542;2022-10-22T04:48:33;15.77;;;14.17;;
462;SDS011;218;51.902;9.542;2022-10-22T04:51:02;19.43;;;16.00;;
462;SDS011;218;51.902;9.542;2022-10-22T04:53:30;15.97;;;14.20;;
462;SDS011;218;51.902;9.542;2022-10-22T04:56:06;18.50;;;15.87;;
462;SDS011;218;51.902;9.542;2022-10-22T04:58:33;16.70;;;14.97;;
462;SDS011;218;51.902;9.542;2022-10-22T05:01:07;15.37;;;13.80;;
462;SDS011;218;51.902;9.542;2022-10-22T05:03:35;14.03;;;12.60;;
462;SDS011;218;51.902;9.542;2022-10-22T05:06:04;14.33;;;12.83;;
462;SDS011;218;51.902;9.542;2022-10-22T05:08:31;11.77;;;10.60;;
462;SDS011;218;51.902;9.542;2022-10-22T05:10:58;11.20;;;10.07;;
462;SDS011;218;51.902;9.542;2022-10-22T05:13:25;13.77;;;11.40;;
462;SDS011;218;51.902;9.542;2022-10-22T05:15:52;10.70;;;9.40;;
462;SDS011;218;51.902;9.542;2022-10-22T05:18:19;12.13;;;10.80;;
462;SDS011;218;51.902;9.542;2022-10-22T05:20:47;12.03;;;10.83;;
462;SDS011;218;51.902;9.542;2022-10-22T05:23:15;13.53;;;10.23;;
462;SDS011;218;51.902;9.542;2022-10-22T05:25:42;13.20;;;11.80;;
462;SDS011;218;51.902;9.542;2022-10-22T05:28:09;12.97;;;11.67;;
462;SDS011;218;51.902;9.542;2022-10-22T05:30:37;11.73;;;10.40;;
462;SDS011;218;51.902;9.542;2022-10-22T05:33:03;13.03;;;11.63;;
462;SDS011;218;51.902;9.542;2022-10-22T05:35:30;13.67;;;11.77;;
462;SDS011;218;51.902;9.542;2022-10-22T05:37:58;12.97;;;11.67;;
462;SDS011;218;51.902;9.542;2022-10-22T05:40:26;12.93;;;11.67;;
462;SDS011;218;51.902;9.542;2022-10-22T05:42:53;13.93;;;12.53;;
462;SDS011;218;51.902;9.542;2022-10-22T05:45:20;14.33;;;11.93;;
462;SDS011;218;51.902;9.542;2022-10-22T05:47:47;11.90;;;10.70;;
462;SDS011;218;51.902;9.542;2022-10-22T05:50:15;13.40;;;12.00;;
462;SDS011;218;51.902;9.542;2022-10-22T05:52:43;12.00;;;10.80;;
462;SDS011;218;51.902;9.542;2022-10-22T05:55:10;12.87;;;11.57;;
462;SDS011;218;51.902;9.542;2022-10-22T05:57:39;12.53;;;11.27;;
462;SDS011;218;51.902;9.542;2022-10-22T06:00:07;12.03;;;10.90;;
462;SDS011;218;51.902;9.542;2022-10-22T06:02:34;12.47;;;11.03;;
462;SDS011;218;51.902;9.542;2022-10-22T06:05:01;13.73;;;12.27;;
462;SDS011;218;51.902;9.542;2022-10-22T06:07:28;13.27;;;11.93;;
462;SDS011;218;51.902;9.542;2022-10-22T06:09:57;13.57;;;11.20;;
462;SDS011;218;51.902;9.542;2022-10-22T06:12:24;14.00;;;11.70;;
462;SDS011;218;51.902;9.542;2022-10-22T06:14:53;14.37;;;12.90;;
462;SDS011;218;51.902;9.542;2022-10-22T06:17:20;13.57;;;12.23;;
462;SDS011;218;51.902;9.542;2022-10-22T06:19:50;15.57;;;13.97;;
462;SDS011;218;51.902;9.542;2022-10-22T06:22:17;14.17;;;12.70;;
462;SDS011;218;51.902;9.542;2022-10-22T06:24:44;14.60;;;13.23;;
462;SDS011;218;51.902;9.542;2022-10-22T06:27:12;15.80;;;14.30;;
462;SDS011;218;51.902;9.542;2022-10-22T06:29:39;14.40;;;12.97;;
462;SDS011;218;51.902;9.542;2022-10-22T06:32:07;14.90;;;13.40;;
462;SDS011;218;51.902;9.542;2022-10-22T06:34:35;15.77;;;12.90;;
462;SDS011;218;51.902;9.542;2022-10-22T06:37:02;14.73;;;12.40;;
462;SDS011;218;51.902;9.542;2022-10-22T06:39:30;13.47;;;12.10;;
462;SDS011;218;51.902;9.542;2022-10-22T06:41:57;14.20;;;11.70;;
462;SDS011;218;51.902;9.542;2022-10-22T06:44:25;14.63;;;13.00;;
462;SDS011;218;51.902;9.542;2022-10-22T06:46:52;13.87;;;12.50;;
462;SDS011;218;51.902;9.542;2022-10-22T06:49:21;14.37;;;12.97;;
462;SDS011;218;51.902;9.542;2022-10-22T06:51:48;12.40;;;11.07;;
462;SDS011;218;51.902;9.542;2022-10-22T06:54:16;13.00;;;11.80;;
462;SDS011;218;51.902;9.542;2022-10-22T06:56:45;12.20;;;11.00;;
462;SDS011;218;51.902;9.542;2022-10-22T06:59:15;12.33;;;10.80;;
462;SDS011;218;51.902;9.542;2022-10-22T07:01:42;12.27;;;11.07;;
462;SDS011;218;51.902;9.542;2022-10-22T07:04:09;12.03;;;10.97;;
462;SDS011;218;51.902;9.542;2022-10-22T07:06:38;12.47;;;11.27;;
462;SDS011;218;51.902;9.542;2022-10-22T07:09:09;11.97;;;10.87;;
462;SDS011;218;51.902;9.542;2022-10-22T07:11:38;13.07;;;11.33;;
462;SDS011;218;51.902;9.542;2022-10-22T07:14:06;13.17;;;11.77;;
462;SDS011;218;51.902;9.542;2022-10-22T07:16:33;12.50;;;11.30;;
462;SDS011;218;51.902;9.542;2022-10-22T07:19:02;13.27;;;11.87;;
462;SDS011;218;51.902;9.542;2022-10-22T07:21:30;12.27;;;11.13;;
462;SDS011;218;51.902;9.542;2022-10-22T07:24:02;12.20;;;11.10;;
462;SDS011;218;51.902;9.542;2022-10-22T07:26:31;14.33;;;12.50;;
462;SDS011;218;51.902;9.542;2022-10-22T07:29:00;12.63;;;11.43;;
462;SDS011;218;51.902;9.542;2022-10-22T07:31:28;12.10;;;11.07;;
462;SDS011;218;51.902;9.542;2022-10-22T07:33:55;12.50;;;11.30;;
462;SDS011;218;51.902;9.542;2022-10-22T07:36:22;13.70;;;12.60;;
462;SDS011;218;51.902;9.542;2022-10-22T07:38:52;11.83;;;10.83;;
462;SDS011;218;51.902;9.542;2022-10-22T07:41:22;13.20;;;12.03;;
462;SDS011;218;51.902;9.542;2022-10-22T07:43:50;12.13;;;11.13;;
462;SDS011;218;51.902;9.542;2022-10-22T07:46:17;14.10;;;12.90;;
462;SDS011;218;51.902;9.542;2022-10-22T07:48:45;13.33;;;12.00;;
462;SDS011;218;51.902;9.542;2022-10-22T07:51:12;13.77;;;12.57;;
462;SDS011;218;51.902;9.542;2022-10-22T07:53:39;13.23;;;10.90;;
462;SDS011;218;51.902;9.542;2022-10-22T07:56:06;13.87;;;12.43;;
462;SDS011;218;51.902;9.542;2022-10-22T07:58:35;14.50;;;12.13;;
462;SDS011;218;51.902;9.542;2022-10-22T08:01:02;16.50;;;14.80;;
462;SDS011;218;51.902;9.542;2022-10-22T08:03:33;13.77;;;12.47;;
462;SDS011;218;51.902;9.542;2022-10-22T08:06:00;10.17;;;9.37;;
462;SDS011;218;51.902;9.542;2022-10-22T08:08:27;10.80;;;9.87;;
462;SDS011;218;51.902;9.542;2022-10-22T08:10:55;10.83;;;9.87;;
462;SDS011;218;51.902;9.542;2022-10-22T08:13:24;10.60;;;9.70;;
462;SDS011;218;51.902;9.542;2022-10-22T08:15:55;11.17;;;10.27;;
462;SDS011;218;51.902;9.542;2022-10-22T08:18:22;11.90;;;10.30;;
462;SDS011;218;51.902;9.542;2022-10-22T08:20:49;10.57;;;9.57;;
462;SDS011;218;51.902;9.542;2022-10-22T08:23:17;12.73;;;10.93;;
462;SDS011;218;51.902;9.542;2022-10-22T08:25:44;13.43;;;12.17;;
462;SDS011;218;51.902;9.542;2022-10-22T08:28:11;12.03;;;10.83;;
462;SDS011;218;51.902;9.542;2022-10-22T08:30:38;13.50;;;12.10;;
462;SDS011;218;51.902;9.542;2022-10-22T08:33:08;12.77;;;11.47;;
462;SDS011;218;51.902;9.542;2022-10-22T08:35:37;12.37;;;11.27;;
462;SDS011;218;51.902;9.542;2022-10-22T08:38:04;12.30;;;11.13;;
462;SDS011;218;51.902;9.542;2022-10-22T08:40:32;13.57;;;12.27;;
462;SDS011;218;51.902;9.542;2022-10-22T08:43:18;10.63;;;9.70;;
462;SDS011;218;51.902;9.542;2022-10-22T08:45:49;13.67;;;12.40;;
462;SDS011;218;51.902;9.542;2022-10-22T08:48:25;11.33;;;10.20;;
462;SDS011;218;51.902;9.542;2022-10-22T08:51:04;11.20;;;10.30;;
462;SDS011;218;51.902;9.542;2022-10-22T08:53:38;9.90;;;9.07;;
462;SDS011;218;51.902;9.542;2022-10-22T08:56:10;11.27;;;10.27;;
462;SDS011;218;51.902;9.542;2022-10-22T08:58:45;11.27;;;10.20;;
462;SDS011;218;51.902;9.542;2022-10-22T09:01:14;11.00;;;10.10;;
462;SDS011;218;51.902;9.542;2022-10-22T09:03:50;10.70;;;9.77;;
462;SDS011;218;51.902;9.542;2022-10-22T09:06:18;10.50;;;9.70;;
462;SDS011;218;51.902;9.542;2022-10-22T09:08:49;10.30;;;9.30;;
462;SDS011;218;51.902;9.542;2022-10-22T09:11:23;10.53;;;9.63;;
462;SDS011;218;51.902;9.542;2022-10-22T09:13:55;9.27;;;8.47;;
462;SDS011;218;51.902;9.542;2022-10-22T09:16:25;9.77;;;8.87;;
462;SDS011;218;51.902;9.542;2022-10-22T09:19:05;9.07;;;8.37;;
462;SDS011;218;51.902;9.542;2022-10-22T09:21:42;10.63;;;9.73;;
462;SDS011;218;51.902;9.542;2022-10-22T09:24:20;9.33;;;8.50;;
462;SDS011;218;51.902;9.542;2022-10-22T09:26:55;9.00;;;8.10;;
462;SDS011;218;51.902;9.542;2022-10-22T09:29:27;10.87;;;9.77;;
462;SDS011;218;51.902;9.542;2022-10-22T09:31:58;9.60;;;8.70;;
462;SDS011;218;51.902;9.542;2022-10-22T09:34:28;9.10;;;8.40;;
462;SDS011;218;51.902;9.542;2022-10-22T09:36:56;9.10;;;8.30;;
462;SDS011;218;51.902;9.542;2022-10-22T09:39:25;8.77;;;8.00;;
462;SDS011;218;51.902;9.542;2022-10-22T09:41:53;9.37;;;8.47;;
462;SDS011;218;51.902;9.542;2022-10-22T09:44:20;7.77;;;7.07;;
462;SDS011;218;51.902;9.542;2022-10-22T09:46:47;8.07;;;7.37;;
462;SDS011;218;51.902;9.542;2022-10-22T09:49:15;8.27;;;7.67;;
462;SDS011;218;51.902;9.542;2022-10-22T09:51:50;8.53;;;7.83;;
462;SDS011;218;51.902;9.542;2022-10-22T09:54:19;8.13;;;7.33;;
462;SDS011;218;51.902;9.542;2022-10-22T09:56:55;8.80;;;7.97;;
462;SDS011;218;51.902;9.542;2022-10-22T09:59:26;7.77;;;7.17;;
462;SDS011;218;51.902;9.542;2022-10-22T10:01:58;7.13;;;6.50;;
462;SDS011;218;51.902;9.542;2022-10-22T10:04:29;7.47;;;6.77;;
462;SDS011;218;51.902;9.542;2022-10-22T10:07:03;7.20;;;6.60;;
462;SDS011;218;51.902;9.542;2022-10-22T10:09:41;7.73;;;7.17;;
462;SDS011;218;51.902;9.542;2022-10-22T10:12:10;7.83;;;7.23;;
462;SDS011;218;51.902;9.542;2022-10-22T10:14:50;6.10;;;5.57;;
462;SDS011;218;51.902;9.542;2022-10-22T10:17:25;7.37;;;6.67;;
462;SDS011;218;51.902;9.542;2022-10-22T10:20:08;7.77;;;6.80;;
462;SDS011;218;51.902;9.542;2022-10-22T10:22:52;7.30;;;6.77;;
462;SDS011;218;51.902;9.542;2022-10-22T10:25:31;7.03;;;6.43;;
462;SDS011;218;51.902;9.542;2022-10-22T10:28:12;6.77;;;6.30;;
462;SDS011;218;51.902;9.542;2022-10-22T10:30:47;6.60;;;6.00;;
462;SDS011;218;51.902;9.542;2022-10-22T10:33:23;5.97;;;5.57;;
462;SDS011;218;51.902;9.542;2022-10-22T10:35:57;6.10;;;5.50;;
462;SDS011;218;51.902;9.542;2022-10-22T10:38:36;6.00;;;5.50;;
462;SDS011;218;51.902;9.542;2022-10-22T10:41:14;5.63;;;5.30;;
462;SDS011;218;51.902;9.542;2022-10-22T10:43:48;6.50;;;5.90;;
462;SDS011;218;51.902;9.542;2022-10-22T10:46:30;5.83;;;5.43;;
462;SDS011;218;51.902;9.542;2022-10-22T10:49:07;6.47;;;5.87;;
462;SDS011;218;51.902;9.542;2022-10-22T10:51:41;6.50;;;6.03;;
462;SDS011;218;51.902;9.542;2022-10-22T10:54:26;6.80;;;6.20;;
462;SDS011;218;51.902;9.542;2022-10-22T10:57:01;8.87;;;5.27;;
462;SDS011;218;51.902;9.542;2022-10-22T10:59:39;6.27;;;5.77;;
462;SDS011;218;51.902;9.542;2022-10-22T11:02:39;5.50;;;5.00;;
462;SDS011;218;51.902;9.542;2022-10-22T11:05:36;5.70;;;5.30;;
462;SDS011;218;51.902;9.542;2022-10-22T11:08:08;5.70;;;5.00;;
462;SDS011;218;51.902;9.542;2022-10-22T11:10:43;6.40;;;5.50;;
462;SDS011;218;51.902;9.542;2022-10-22T11:13:16;6.27;;;5.67;;
462;SDS011;218;51.902;9.542;2022-10-22T11:15:49;5.33;;;4.83;;
462;SDS011;218;51.902;9.542;2022-10-22T11:18:22;5.17;;;4.77;;
462;SDS011;218;51.902;9.542;2022-10-22T11:21:02;5.63;;;4.73;;
462;SDS011;218;51.902;9.542;2022-10-22T11:23:38;5.73;;;5.20;;
462;SDS011;218;51.902;9.542;2022-10-22T11:26:12;4.50;;;4.20;;
462;SDS011;218;51.902;9.542;2022-10-22T11:28:45;5.97;;;5.10;;
462;SDS011;218;51.902;9.542;2022-10-22T11:31:16;4.63;;;4.30;;
462;SDS011;218;51.902;9.542;2022-10-22T11:33:46;4.50;;;4.10;;
462;SDS011;218;51.902;9.542;2022-10-22T11:36:21;5.30;;;4.87;;
462;SDS011;218;51.902;9.542;2022-10-22T11:38:50;5.20;;;4.70;;
462;SDS011;218;51.902;9.542;2022-10-22T11:41:21;4.53;;;4.13;;
462;SDS011;218;51.902;9.542;2022-10-22T11:43:57;5.40;;;4.50;;
462;SDS011;218;51.902;9.542;2022-10-22T11:46:37;4.20;;;3.90;;
462;SDS011;218;51.902;9.542;2022-10-22T11:49:21;4.97;;;4.33;;
462;SDS011;218;51.902;9.542;2022-10-22T11:51:50;4.20;;;3.80;;
462;SDS011;218;51.902;9.542;2022-10-22T11:54:31;6.50;;;4.77;;
462;SDS011;218;51.902;9.542;2022-10-22T11:57:19;4.57;;;4.27;;
462;SDS011;218;51.902;9.542;2022-10-22T11:59:49;5.37;;;4.20;;
462;SDS011;218;51.902;9.542;2022-10-22T12:02:27;4.37;;;3.60;;
462;SDS011;218;51.902;9.542;2022-10-22T12:05:16;4.53;;;3.43;;
462;SDS011;218;51.902;9.542;2022-10-22T12:07:50;7.63;;;3.43;;
462;SDS011;218;51.902;9.542;2022-10-22T12:10:21;7.70;;;3.60;;
462;SDS011;218;51.902;9.542;2022-10-22T12:12:54;4.70;;;3.10;;
462;SDS011;218;51.902;9.542;2022-10-22T12:15:26;7.30;;;3.70;;
462;SDS011;218;51.902;9.542;2022-10-22T12:17:58;5.97;;;3.40;;
462;SDS011;218;51.902;9.542;2022-10-22T12:20:26;7.17;;;3.50;;
462;SDS011;218;51.902;9.542;2022-10-22T12:22:54;4.77;;;3.33;;
462;SDS011;218;51.902;9.542;2022-10-22T12:25:23;8.10;;;3.60;;
462;SDS011;218;51.902;9.542;2022-10-22T12:27:51;5.10;;;2.80;;
462;SDS011;218;51.902;9.542;2022-10-22T12:30:21;3.77;;;3.30;;
462;SDS011;218;51.902;9.542;2022-10-22T12:32:50;5.00;;;3.43;;
462;SDS011;218;51.902;9.542;2022-10-22T12:35:20;8.63;;;3.07;;
462;SDS011;218;51.902;9.542;2022-10-22T12:37:48;3.23;;;2.90;;
462;SDS011;218;51.902;9.542;2022-10-22T12:40:17;3.33;;;3.03;;
462;SDS011;218;51.902;9.542;2022-10-22T12:42:46;5.77;;;3.37;;
462;SDS011;218;51.902;9.542;2022-10-22T12:45:15;4.13;;;3.23;;
462;SDS011;218;51.902;9.542;2022-10-22T12:47:47;5.33;;;2.93;;
462;SDS011;218;51.902;9.542;2022-10-22T12:50:17;6.40;;;3.17;;
462;SDS011;218;51.902;9.542;2022-10-22T12:52:46;6.37;;;4.30;;
462;SDS011;218;51.902;9.542;2022-10-22T12:55:14;4.37;;;3.20;;
462;SDS011;218;51.902;9.542;2022-10-22T12:57:46;5.30;;;3.27;;
462;SDS011;218;51.902;9.542;2022-10-22T13:00:20;4.50;;;2.70;;
462;SDS011;218;51.902;9.542;2022-10-22T13:02:55;7.00;;;3.00;;
462;SDS011;218;51.902;9.542;2022-10-22T13:05:30;3.80;;;3.43;;
462;SDS011;218;51.902;9.542;2022-10-22T13:08:04;5.20;;;3.23;;
462;SDS011;218;51.902;9.542;2022-10-22T13:10:35;3.63;;;3.10;;
462;SDS011;218;51.902;9.542;2022-10-22T13:13:04;4.33;;;3.73;;
462;SDS011;218;51.902;9.542;2022-10-22T13:15:33;10.57;;;4.60;;
462;SDS011;218;51.902;9.542;2022-10-22T13:18:05;4.87;;;3.90;;
462;SDS011;218;51.902;9.542;2022-10-22T13:20:48;4.83;;;3.67;;
462;SDS011;218;51.902;9.542;2022-10-22T13:23:20;4.33;;;3.03;;
462;SDS011;218;51.902;9.542;2022-10-22T13:25:55;5.47;;;3.57;;
462;SDS011;218;51.902;9.542;2022-10-22T13:28:24;4.13;;;3.63;;
462;SDS011;218;51.902;9.542;2022-10-22T13:30:52;4.77;;;3.00;;
462;SDS011;218;51.902;9.542;2022-10-22T13:33:22;4.50;;;3.00;;
462;SDS011;218;51.902;9.542;2022-10-22T13:35:51;3.93;;;3.20;;
462;SDS011;218;51.902;9.542;2022-10-22T13:38:20;4.53;;;3.70;;
462;SDS011;218;51.902;9.542;2022-10-22T13:40:49;4.73;;;3.30;;
462;SDS011;218;51.902;9.542;2022-10-22T13:43:16;4.23;;;3.53;;
462;SDS011;218;51.902;9.542;2022-10-22T13:45:44;5.10;;;3.53;;
462;SDS011;218;51.902;9.542;2022-10-22T13:48:13;7.70;;;3.27;;
462;SDS011;218;51.902;9.542;2022-10-22T13:50:44;4.63;;;4.03;;
462;SDS011;218;51.902;9.542;2022-10-22T13:53:13;6.63;;;3.80;;
462;SDS011;218;51.902;9.542;2022-10-22T13:55:43;6.50;;;3.67;;
462;SDS011;218;51.902;9.542;2022-10-22T13:58:11;5.90;;;4.00;;
462;SDS011;218;51.902;9.542;2022-10-22T14:00:41;3.80;;;3.50;;
462;SDS011;218;51.902;9.542;2022-10-22T14:03:12;9.13;;;4.57;;
462;SDS011;218;51.902;9.542;2022-10-22T14:05:42;5.60;;;4.40;;
462;SDS011;218;51.902;9.542;2022-10-22T14:08:13;5.03;;;4.63;;
462;SDS011;218;51.902;9.542;2022-10-22T14:10:42;5.30;;;4.13;;
462;SDS011;218;51.902;9.542;2022-10-22T14:13:09;5.53;;;4.30;;
462;SDS011;218;51.902;9.542;2022-10-22T14:15:36;4.20;;;3.70;;
462;SDS011;218;51.902;9.542;2022-10-22T14:18:05;6.53;;;5.03;;
462;SDS011;218;51.902;9.542;2022-10-22T14:20:34;5.20;;;4.50;;
462;SDS011;218;51.902;9.542;2022-10-22T14:23:12;5.70;;;3.93;;
462;SDS011;218;51.902;9.542;2022-10-22T14:25:41;4.50;;;3.73;;
462;SDS011;218;51.902;9.542;2022-10-22T14:28:09;4.97;;;4.20;;
462;SDS011;218;51.902;9.542;2022-10-22T14:30:36;5.60;;;5.10;;
462;SDS011;218;51.902;9.542;2022-10-22T14:33:05;5.23;;;4.83;;
462;SDS011;218;51.902;9.542;2022-10-22T14:35:38;5.23;;;4.40;;
462;SDS011;218;51.902;9.542;2022-10-22T14:38:06;4.50;;;3.70;;
462;SDS011;218;51.902;9.542;2022-10-22T14:40:33;5.20;;;4.60;;
462;SDS011;218;51.902;9.542;2022-10-22T14:43:03;4.80;;;4.50;;
462;SDS011;218;51.902;9.542;2022-10-22T14:45:30;5.17;;;4.77;;
462;SDS011;218;51.902;9.542;2022-10-22T14:47:57;4.53;;;4.23;;
462;SDS011;218;51.902;9.542;2022-10-22T14:50:24;5.27;;;4.87;;
462;SDS011;218;51.902;9.542;2022-10-22T14:52:51;5.97;;;5.37;;
462;SDS011;218;51.902;9.542;2022-10-22T14:55:19;5.67;;;5.20;;
462;SDS011;218;51.902;9.542;2022-10-22T14:57:46;6.13;;;5.20;;
462;SDS011;218;51.902;9.542;2022-10-22T15:00:14;5.30;;;4.90;;
462;SDS011;218;51.902;9.542;2022-10-22T15:02:42;5.93;;;5.33;;
462;SDS011;218;51.902;9.542;2022-10-22T15:05:10;6.63;;;6.00;;
462;SDS011;218;51.902;9.542;2022-10-22T15:07:37;6.60;;;5.10;;
462;SDS011;218;51.902;9.542;2022-10-22T15:10:07;5.13;;;4.73;;
462;SDS011;218;51.902;9.542;2022-10-22T15:12:36;5.47;;;4.97;;
462;SDS011;218;51.902;9.542;2022-10-22T15:15:03;6.37;;;5.30;;
462;SDS011;218;51.902;9.542;2022-10-22T15:17:31;7.13;;;5.67;;
462;SDS011;218;51.902;9.542;2022-10-22T15:19:58;5.63;;;4.97;;
462;SDS011;218;51.902;9.542;2022-10-22T15:22:28;4.80;;;4.50;;
462;SDS011;218;51.902;9.542;2022-10-22T15:24:55;5.60;;;5.20;;
462;SDS011;218;51.902;9.542;2022-10-22T15:27:22;4.97;;;4.67;;
462;SDS011;218;51.902;9.542;2022-10-22T15:29:51;5.60;;;5.10;;
462;SDS011;218;51.902;9.542;2022-10-22T15:32:18;5.43;;;4.77;;
462;SDS011;218;51.902;9.542;2022-10-22T15:34:45;5.83;;;5.37;;
462;SDS011;218;51.902;9.542;2022-10-22T15:37:12;5.60;;;5.20;;
462;SDS011;218;51.902;9.542;2022-10-22T15:39:39;5.33;;;4.93;;
462;SDS011;218;51.902;9.542;2022-10-22T15:42:07;7.93;;;5.00;;
462;SDS011;218;51.902;9.542;2022-10-22T15:44:34;5.33;;;4.80;;
462;SDS011;218;51.902;9.542;2022-10-22T15:47:05;4.67;;;4.27;;
462;SDS011;218;51.902;9.542;2022-10-22T15:49:33;5.17;;;4.77;;
462;SDS011;218;51.902;9.542;2022-10-22T15:52:01;6.17;;;5.67;;
462;SDS011;218;51.902;9.542;2022-10-22T15:54:28;5.37;;;4.97;;